| time (UTC) | temp F | wind direction | speed MPH | gust MPH | rain 1hr in | rain 24hr in | rain mn in | humidity % | barometer mb |
| 20260906193107 | 49 | 204 | 3.0 | 10.0 | 0.00 | 0.00 | 0.00 | 93 | 969.4 |
| 20260906192607 | 49 | 126 | 4.0 | 10.0 | 0.00 | 0.00 | 0.00 | 92 | 969.5 |
| 20260906192107 | 49 | 230 | 4.0 | 10.0 | 0.00 | 0.00 | 0.00 | 92 | 969.3 |
| 20260906191607 | 49 | 233 | 3.0 | 10.0 | 0.00 | 0.00 | 0.00 | 92 | 969.3 |
| 20260906191107 | 49 | 271 | 2.0 | 6.0 | 0.00 | 0.00 | 0.00 | 92 | 969.3 |
| 20260906190607 | 50 | 202 | 2.0 | 6.0 | 0.00 | 0.00 | 0.00 | 91 | 969.4 |
| 20260906190107 | 50 | 203 | 2.0 | 6.0 | 0.00 | 0.00 | 0.00 | 91 | 969.5 |
| 20260906185607 | 50 | 246 | 3.0 | 8.0 | 0.00 | 0.00 | 0.00 | 90 | 969.4 |
| 20260906185107 | 50 | 75 | 4.0 | 9.0 | 0.00 | 0.00 | 0.00 | 90 | 969.7 |
| 20260906184607 | 50 | 206 | 4.0 | 9.0 | 0.00 | 0.00 | 0.00 | 89 | 969.6 |
| 20260906184107 | 51 | 247 | 4.0 | 11.0 | 0.00 | 0.00 | 0.00 | 89 | 969.5 |
| 20260906183607 | 51 | 124 | 5.0 | 11.0 | 0.00 | 0.00 | 0.00 | 88 | 969.6 |
| 20260906183107 | 51 | 193 | 5.0 | 14.0 | 0.00 | 0.00 | 0.00 | 88 | 969.5 |
| 20260906182607 | 51 | 232 | 5.0 | 14.0 | 0.00 | 0.00 | 0.00 | 88 | 969.6 |
| 20260906182107 | 51 | 250 | 4.0 | 11.0 | 0.00 | 0.00 | 0.00 | 88 | 969.5 |
| 20260906181607 | 51 | 163 | 5.0 | 11.0 | 0.00 | 0.00 | 0.00 | 88 | 969.6 |
| 20260906181106 | 51 | 205 | 5.0 | 11.0 | 0.00 | 0.00 | 0.00 | 87 | 969.4 |
| 20260906180606 | 51 | 224 | 3.0 | 11.0 | 0.00 | 0.00 | 0.00 | 86 | 969.5 |
| 20260906180106 | 51 | 229 | 2.0 | 10.0 | 0.00 | 0.00 | 0.00 | 86 | 969.4 |
| 20260906175606 | 52 | 182 | 2.0 | 7.0 | 0.00 | 0.00 | 0.00 | 85 | 969.4 |
| 20260906175106 | 52 | 235 | 2.0 | 5.0 | 0.00 | 0.00 | 0.00 | 86 | 969.3 |
| 20260906174606 | 52 | 235 | 2.0 | 5.0 | 0.00 | 0.00 | 0.00 | 85 | 969.2 |
| 20260906174106 | 53 | 230 | 2.0 | 6.0 | 0.00 | 0.00 | 0.00 | 84 | 969.2 |
| 20260906173606 | 53 | 201 | 2.0 | 11.0 | 0.00 | 0.00 | 0.00 | 83 | 969.2 |
| 20260906173106 | 53 | 227 | 3.0 | 11.0 | 0.00 | 0.00 | 0.00 | 82 | 969.2 |
| 20260906172606 | 53 | 120 | 4.0 | 12.0 | 0.00 | 0.00 | 0.00 | 82 | 969.2 |
| 20260906172106 | 53 | 251 | 5.0 | 12.0 | 0.00 | 0.00 | 0.00 | 81 | 969.2 |
| 20260906171606 | 54 | 147 | 5.0 | 12.0 | 0.00 | 0.00 | 0.00 | 81 | 969.2 |
| 20260906171106 | 54 | 234 | 5.0 | 16.0 | 0.00 | 0.00 | 0.00 | 82 | 969.3 |
| 20260906170606 | 54 | 202 | 4.0 | 16.0 | 0.00 | 0.00 | 0.00 | 81 | 969.1 |
| 20260906170106 | 53 | 234 | 4.0 | 10.0 | 0.00 | 0.00 | 0.00 | 82 | 969.3 |
| 20260906165606 | 53 | 131 | 3.0 | 9.0 | 0.00 | 0.00 | 0.00 | 83 | 969.2 |
| 20260906165106 | 53 | 182 | 2.0 | 7.0 | 0.00 | 0.00 | 0.00 | 85 | 969.2 |
| 20260906164606 | 53 | 235 | 3.0 | 8.0 | 0.00 | 0.00 | 0.00 | 86 | 969.2 |
| 20260906164106 | 53 | 111 | 4.0 | 9.0 | 0.00 | 0.00 | 0.00 | 86 | 969.2 |
| 20260906163605 | 53 | 218 | 4.0 | 9.0 | 0.00 | 0.00 | 0.00 | 85 | 969.2 |
| 20260906163105 | 53 | 218 | 4.0 | 10.0 | 0.00 | 0.00 | 0.00 | 85 | 969.2 |
| 20260906162605 | 53 | 218 | 4.0 | 10.0 | 0.00 | 0.00 | 0.00 | 83 | 969.2 |
| 20260906162105 | 53 | 238 | 4.0 | 15.0 | 0.00 | 0.00 | 0.00 | 83 | 969.2 |
| 20260906161605 | 53 | 208 | 5.0 | 15.0 | 0.00 | 0.00 | 0.00 | 82 | 969.3 |
| 20260906161105 | 54 | 217 | 5.0 | 13.0 | 0.00 | 0.00 | 0.00 | 81 | 969.3 |
| 20260906160605 | 54 | 203 | 5.0 | 13.0 | 0.00 | 0.00 | 0.00 | 81 | 969.3 |
| 20260906160105 | 55 | 262 | 4.0 | 12.0 | 0.00 | 0.00 | 0.00 | 81 | 969.3 |
| 20260906155605 | 54 | 214 | 5.0 | 16.0 | 0.00 | 0.00 | 0.00 | 81 | 969.2 |
| 20260906155105 | 54 | 236 | 5.0 | 16.0 | 0.00 | 0.00 | 0.00 | 81 | 969.1 |
| 20260906154605 | 54 | 216 | 5.0 | 16.0 | 0.00 | 0.00 | 0.00 | 83 | 969.0 |
| 20260906154105 | 55 | 235 | 5.0 | 15.0 | 0.00 | 0.00 | 0.00 | 82 | 969.0 |
| 20260906153605 | 55 | 223 | 5.0 | 15.0 | 0.00 | 0.00 | 0.00 | 78 | 968.9 |
| 20260906153105 | 56 | 209 | 4.0 | 11.0 | 0.00 | 0.00 | 0.00 | 79 | 968.8 |
| 20260906152605 | 56 | 189 | 5.0 | 20.0 | 0.00 | 0.00 | 0.00 | 78 | 968.8 |
| 20260906152105 | 56 | 143 | 6.0 | 20.0 | 0.00 | 0.00 | 0.00 | 78 | 968.7 |
| 20260906151605 | 56 | 228 | 6.0 | 19.0 | 0.00 | 0.00 | 0.00 | 76 | 968.7 |
| 20260906151104 | 56 | 145 | 6.0 | 21.0 | 0.00 | 0.00 | 0.00 | 77 | 968.7 |
| 20260906150604 | 56 | 47 | 5.0 | 21.0 | 0.00 | 0.00 | 0.00 | 76 | 968.6 |
| 20260906150104 | 56 | 106 | 5.0 | 19.0 | 0.00 | 0.00 | 0.00 | 76 | 968.7 |
| 20260906145604 | 56 | 83 | 5.0 | 19.0 | 0.00 | 0.00 | 0.00 | 75 | 968.6 |
| 20260906145104 | 56 | 123 | 5.0 | 19.0 | 0.00 | 0.00 | 0.00 | 75 | 968.6 |
| 20260906144604 | 56 | 119 | 5.0 | 16.0 | 0.00 | 0.00 | 0.00 | 76 | 968.6 |
| 20260906144104 | 56 | 238 | 6.0 | 16.0 | 0.00 | 0.00 | 0.00 | 74 | 968.6 |
| 20260906143604 | 56 | 258 | 6.0 | 20.0 | 0.00 | 0.00 | 0.00 | 77 | 968.5 |
| 20260906143104 | 56 | 228 | 5.0 | 20.0 | 0.00 | 0.00 | 0.00 | 76 | 968.5 |
| 20260906142604 | 56 | 114 | 5.0 | 17.0 | 0.00 | 0.00 | 0.00 | 77 | 968.4 |
| 20260906142104 | 56 | 51 | 6.0 | 16.0 | 0.00 | 0.00 | 0.00 | 80 | 968.5 |
| 20260906141604 | 56 | 230 | 6.0 | 15.0 | 0.00 | 0.00 | 0.00 | 80 | 968.6 |
| 20260906141104 | 55 | 237 | 6.0 | 15.0 | 0.00 | 0.00 | 0.00 | 84 | 968.4 |
| 20260906140603 | 55 | 249 | 6.0 | 13.0 | 0.00 | 0.00 | 0.00 | 85 | 968.5 |
| 20260906140103 | 56 | 126 | 6.0 | 13.0 | 0.00 | 0.00 | 0.00 | 82 | 968.5 |
| 20260906135603 | 55 | 236 | 6.0 | 13.0 | 0.00 | 0.00 | 0.00 | 88 | 968.4 |
| 20260906135103 | 54 | 272 | 7.0 | 15.0 | 0.00 | 0.00 | 0.00 | 90 | 968.5 |
| 20260906134603 | 54 | 256 | 8.0 | 17.0 | 0.00 | 0.00 | 0.00 | 88 | 968.5 |
| 20260906134103 | 56 | 235 | 6.0 | 17.0 | 0.00 | 0.00 | 0.00 | 80 | 968.3 |
| 20260906133603 | 59 | 196 | 5.0 | 15.0 | 0.00 | 0.00 | 0.00 | 70 | 967.9 |
| 20260906133033 | 61 | 111 | 5.0 | 15.0 | 0.00 | 0.00 | 0.00 | 68 | 968.1 |
| 20260906132533 | 60 | 128 | 5.0 | 17.0 | 0.00 | 0.00 | 0.00 | 72 | 968.0 |
| 20260906132033 | 59 | 115 | 5.0 | 17.0 | 0.00 | 0.00 | 0.00 | 68 | 968.0 |
| 20260906131533 | 59 | 136 | 5.0 | 15.0 | 0.00 | 0.00 | 0.00 | 70 | 968.1 |
| 20260906131033 | 59 | 215 | 6.0 | 17.0 | 0.00 | 0.00 | 0.00 | 72 | 968.1 |
| 20260906130533 | 59 | 155 | 6.0 | 17.0 | 0.00 | 0.00 | 0.00 | 77 | 967.9 |
| 20260906130033 | 57 | 214 | 5.0 | 17.0 | 0.00 | 0.00 | 0.00 | 79 | 967.9 |
| 20260906125532 | 58 | 125 | 4.0 | 12.0 | 0.00 | 0.00 | 0.00 | 81 | 968.0 |
| 20260906125032 | 56 | 128 | 4.0 | 13.0 | 0.00 | 0.00 | 0.00 | 88 | 968.1 |
| 20260906124532 | 54 | 108 | 5.0 | 18.0 | 0.00 | 0.00 | 0.00 | 90 | 968.0 |
| 20260906124032 | 54 | 77 | 6.0 | 18.0 | 0.00 | 0.00 | 0.00 | 90 | 967.9 |
| 20260906123532 | 54 | 89 | 6.0 | 23.0 | 0.00 | 0.00 | 0.00 | 88 | 967.8 |
| 20260906123032 | 56 | 354 | 6.0 | 23.0 | 0.00 | 0.00 | 0.00 | 82 | 967.8 |
| 20260906122532 | 59 | 19 | 5.0 | 21.0 | 0.00 | 0.00 | 0.00 | 71 | 967.6 |
| 20260906122032 | 60 | 169 | 5.0 | 15.0 | 0.00 | 0.00 | 0.00 | 69 | 967.5 |
| 20260906121532 | 61 | 164 | 4.0 | 13.0 | 0.00 | 0.00 | 0.00 | 70 | 967.7 |
| 20260906121032 | 61 | 197 | 4.0 | 13.0 | 0.00 | 0.00 | 0.00 | 69 | 967.8 |
| 20260906120532 | 60 | 87 | 4.0 | 13.0 | 0.00 | 0.00 | 0.00 | 73 | 967.7 |
| 20260906120032 | 58 | 116 | 4.0 | 14.0 | 0.00 | 0.00 | 0.00 | 77 | 967.8 |
| 20260906115532 | 57 | 42 | 4.0 | 14.0 | 0.00 | 0.00 | 0.00 | 75 | 967.7 |
| 20260906115032 | 58 | 84 | 4.0 | 16.0 | 0.00 | 0.00 | 0.00 | 75 | 967.7 |
| 20260906114532 | 57 | 71 | 4.0 | 16.0 | 0.00 | 0.00 | 0.00 | 76 | 967.7 |
| 20260906114031 | 57 | 187 | 5.0 | 20.0 | 0.00 | 0.00 | 0.00 | 74 | 967.5 |
| 20260906113531 | 58 | 75 | 5.0 | 20.0 | 0.00 | 0.00 | 0.00 | 75 | 967.8 |
| 20260906113031 | 59 | 120 | 5.0 | 17.0 | 0.00 | 0.00 | 0.00 | 74 | 967.5 |
| 20260906112531 | 59 | 116 | 5.0 | 12.0 | 0.00 | 0.00 | 0.00 | 73 | 967.7 |
| 20260906112031 | 57 | 170 | 4.0 | 12.0 | 0.00 | 0.00 | 0.00 | 76 | 967.7 |
| 20260906111531 | 58 | 122 | 4.0 | 11.0 | 0.00 | 0.00 | 0.00 | 75 | 967.6 |
| 20260906111031 | 58 | 158 | 4.0 | 15.0 | 0.00 | 0.00 | 0.00 | 78 | 967.5 |
| 20260906110531 | 57 | 100 | 5.0 | 17.0 | 0.00 | 0.00 | 0.00 | 79 | 967.3 |
| 20260906110031 | 56 | 207 | 5.0 | 17.0 | 0.00 | 0.00 | 0.00 | 79 | 967.3 |
| 20260906105531 | 56 | 251 | 5.0 | 15.0 | 0.00 | 0.00 | 0.00 | 81 | 967.4 |
| 20260906105031 | 57 | 154 | 6.0 | 17.0 | 0.00 | 0.00 | 0.00 | 79 | 967.3 |
| 20260906104531 | 58 | 153 | 6.0 | 17.0 | 0.00 | 0.00 | 0.00 | 77 | 967.2 |
| 20260906104031 | 58 | 61 | 5.0 | 17.0 | 0.00 | 0.00 | 0.00 | 75 | 967.1 |
| 20260906103531 | 60 | 92 | 4.0 | 13.0 | 0.00 | 0.00 | 0.00 | 72 | 967.2 |
| 20260906103031 | 59 | 145 | 4.0 | 13.0 | 0.00 | 0.00 | 0.00 | 76 | 967.1 |
| 20260906102530 | 62 | 139 | 3.0 | 14.0 | 0.00 | 0.00 | 0.00 | 75 | 967.1 |
| 20260906102030 | 61 | 132 | 3.0 | 14.0 | 0.00 | 0.00 | 0.00 | 78 | 967.1 |
| 20260906101530 | 60 | 126 | 3.0 | 13.0 | 0.00 | 0.00 | 0.00 | 82 | 967.2 |
| 20260906101030 | 59 | 155 | 4.0 | 10.0 | 0.00 | 0.00 | 0.00 | 81 | 967.0 |
| 20260906100530 | 58 | 125 | 3.0 | 11.0 | 0.00 | 0.00 | 0.00 | 84 | 967.1 |
| 20260906100030 | 57 | 118 | 3.0 | 11.0 | 0.00 | 0.00 | 0.00 | 91 | 967.1 |
| 20260906095530 | 54 | 56 | 3.0 | 11.0 | 0.00 | 0.00 | 0.00 | 97 | 967.1 |
| 20260906095030 | 53 | 159 | 3.0 | 15.0 | 0.00 | 0.00 | 0.00 | 97 | 967.1 |
| 20260906094530 | 53 | 126 | 5.0 | 15.0 | 0.00 | 0.00 | 0.00 | 96 | 967.0 |
| 20260906094030 | 54 | 103 | 5.0 | 15.0 | 0.00 | 0.00 | 0.00 | 91 | 967.0 |
| 20260906093530 | 56 | 169 | 5.0 | 13.0 | 0.00 | 0.00 | 0.00 | 80 | 967.0 |
| 20260906093030 | 57 | 236 | 5.0 | 12.0 | 0.00 | 0.00 | 0.00 | 75 | 967.0 |
| 20260906092530 | 58 | 188 | 4.0 | 11.0 | 0.00 | 0.00 | 0.00 | 77 | 966.9 |
| 20260906092030 | 57 | 203 | 4.0 | 11.0 | 0.00 | 0.00 | 0.00 | 77 | 966.7 |
| 20260906091529 | 56 | 213 | 4.0 | 11.0 | 0.00 | 0.00 | 0.00 | 78 | 966.8 |
| 20260906091029 | 57 | 136 | 4.0 | 11.0 | 0.00 | 0.00 | 0.00 | 77 | 967.0 |
| 20260906090529 | 57 | 111 | 4.0 | 13.0 | 0.00 | 0.00 | 0.00 | 78 | 966.9 |
| 20260906090029 | 57 | 245 | 4.0 | 13.0 | 0.00 | 0.00 | 0.00 | 77 | 966.8 |
| 20260906085529 | 57 | 113 | 4.0 | 13.0 | 0.00 | 0.00 | 0.00 | 77 | 966.9 |
| 20260906085029 | 57 | 185 | 4.0 | 13.0 | 0.00 | 0.00 | 0.00 | 77 | 966.9 |
| 20260906084529 | 58 | 184 | 4.0 | 16.0 | 0.00 | 0.00 | 0.00 | 76 | 966.9 |
| 20260906084029 | 59 | 173 | 4.0 | 16.0 | 0.00 | 0.00 | 0.00 | 77 | 966.8 |
| 20260906083529 | 60 | 144 | 4.0 | 11.0 | 0.00 | 0.00 | 0.00 | 79 | 966.9 |
| 20260906083029 | 58 | 132 | 4.0 | 11.0 | 0.00 | 0.00 | 0.00 | 80 | 966.8 |
| 20260906082529 | 56 | 119 | 4.0 | 13.0 | 0.00 | 0.00 | 0.00 | 82 | 966.7 |
| 20260906082029 | 56 | 168 | 5.0 | 14.0 | 0.00 | 0.00 | 0.00 | 80 | 966.6 |
| 20260906081528 | 57 | 143 | 4.0 | 14.0 | 0.00 | 0.00 | 0.00 | 81 | 966.6 |
| 20260906081028 | 57 | 202 | 4.0 | 14.0 | 0.00 | 0.00 | 0.00 | 81 | 966.6 |
| 20260906080528 | 56 | 139 | 5.0 | 15.0 | 0.00 | 0.00 | 0.00 | 82 | 966.4 |
| 20260906080028 | 57 | 150 | 5.0 | 15.0 | 0.00 | 0.00 | 0.00 | 83 | 966.4 |
| 20260906075528 | 57 | 59 | 4.0 | 13.0 | 0.00 | 0.00 | 0.00 | 82 | 966.5 |
| 20260906075028 | 57 | 101 | 4.0 | 12.0 | 0.00 | 0.00 | 0.00 | 83 | 966.5 |
| 20260906074528 | 55 | 89 | 3.0 | 11.0 | 0.00 | 0.00 | 0.00 | 84 | 966.5 |
| 20260906074028 | 55 | 217 | 3.0 | 11.0 | 0.00 | 0.00 | 0.00 | 86 | 966.5 |
| 20260906073528 | 55 | 166 | 3.0 | 9.0 | 0.00 | 0.00 | 0.00 | 85 | 966.5 |
| 20260906073028 | 54 | 129 | 3.0 | 11.0 | 0.00 | 0.00 | 0.00 | 87 | 966.5 |
| 20260906072528 | 54 | 64 | 3.0 | 11.0 | 0.00 | 0.00 | 0.00 | 87 | 966.4 |
| 20260906072028 | 53 | 103 | 3.0 | 10.0 | 0.00 | 0.00 | 0.00 | 87 | 966.3 |
| 20260906071528 | 53 | 292 | 3.0 | 10.0 | 0.00 | 0.00 | 0.00 | 87 | 966.3 |
| 20260906071028 | 53 | 69 | 3.0 | 11.0 | 0.00 | 0.00 | 0.00 | 88 | 966.3 |
| 20260906070528 | 53 | 103 | 4.0 | 19.0 | 0.00 | 0.00 | 0.00 | 89 | 966.2 |
| 20260906070027 | 53 | 141 | 4.0 | 19.0 | 0.00 | 0.00 | 0.00 | 87 | 966.3 |
| 20260906065527 | 54 | 168 | 4.0 | 11.0 | 0.00 | 0.00 | 0.00 | 86 | 966.1 |
| 20260906065027 | 54 | 204 | 4.0 | 11.0 | 0.00 | 0.00 | 0.00 | 85 | 966.1 |
| 20260906064527 | 54 | 73 | 4.0 | 12.0 | 0.00 | 0.00 | 0.00 | 85 | 966.0 |
| 20260906064027 | 55 | 158 | 4.0 | 12.0 | 0.00 | 0.00 | 0.00 | 82 | 965.9 |
| 20260906063527 | 58 | 161 | 4.0 | 12.0 | 0.00 | 0.00 | 0.00 | 81 | 966.0 |
| 20260906063027 | 56 | 209 | 4.0 | 16.0 | 0.00 | 0.00 | 0.00 | 81 | 965.9 |
| 20260906062527 | 56 | 114 | 4.0 | 16.0 | 0.00 | 0.00 | 0.00 | 84 | 965.8 |
| 20260906062027 | 56 | 110 | 4.0 | 11.0 | 0.00 | 0.00 | 0.00 | 83 | 965.9 |
| 20260906061527 | 56 | 176 | 3.0 | 10.0 | 0.00 | 0.00 | 0.00 | 83 | 965.8 |
| 20260906061027 | 56 | 149 | 3.0 | 11.0 | 0.00 | 0.00 | 0.00 | 84 | 965.7 |
| 20260906060527 | 56 | 93 | 3.0 | 11.0 | 0.00 | 0.00 | 0.00 | 84 | 965.7 |
| 20260906060027 | 56 | 84 | 3.0 | 10.0 | 0.00 | 0.00 | 0.00 | 85 | 965.6 |
| 20260906055527 | 55 | 268 | 3.0 | 9.0 | 0.00 | 0.00 | 0.00 | 86 | 965.5 |
| 20260906055027 | 53 | 126 | 3.0 | 14.0 | 0.00 | 0.00 | 0.00 | 89 | 965.5 |
| 20260906054526 | 54 | 237 | 3.0 | 14.0 | 0.00 | 0.00 | 0.00 | 87 | 965.4 |
| 20260906054026 | 54 | 87 | 3.0 | 8.0 | 0.00 | 0.00 | 0.00 | 88 | 965.4 |
| 20260906053526 | 53 | 220 | 3.0 | 8.0 | 0.00 | 0.00 | 0.00 | 89 | 965.4 |
| 20260906053026 | 53 | 93 | 3.0 | 9.0 | 0.00 | 0.00 | 0.00 | 92 | 965.4 |
| 20260906052526 | 51 | 178 | 4.0 | 10.0 | 0.00 | 0.00 | 0.00 | 95 | 965.4 |
| 20260906052026 | 49 | 144 | 4.0 | 14.0 | 0.00 | 0.00 | 0.00 | 97 | 965.4 |
| 20260906051526 | 50 | 195 | 5.0 | 14.0 | 0.00 | 0.00 | 0.00 | 95 | 965.5 |
| 20260906051026 | 51 | 235 | 5.0 | 13.0 | 0.00 | 0.00 | 0.00 | 94 | 965.6 |
| 20260906050526 | 51 | 172 | 4.0 | 11.0 | 0.00 | 0.00 | 0.00 | 94 | 965.4 |
| 20260906050026 | 51 | 159 | 4.0 | 12.0 | 0.00 | 0.00 | 0.00 | 96 | 965.4 |
| 20260906045526 | 50 | 105 | 4.0 | 14.0 | 0.00 | 0.00 | 0.00 | 98 | 965.3 |
| 20260906045026 | 48 | 157 | 4.0 | 14.0 | 0.00 | 0.00 | 0.00 | 99 | 965.3 |
| 20260906044526 | 47 | 269 | 4.0 | 11.0 | 0.00 | 0.00 | 0.00 | 99 | 965.2 |
| 20260906044026 | 47 | 223 | 3.0 | 10.0 | 0.00 | 0.00 | 0.00 | 10 | 965.2 |
| 20260906043526 | 47 | 196 | 2.0 | 10.0 | 0.00 | 0.00 | 0.00 | 10 | 965.3 |
| 20260906043025 | 47 | 62 | 2.0 | 9.0 | 0.00 | 0.00 | 0.00 | 10 | 965.3 |
| 20260906042525 | 47 | 216 | 2.0 | 9.0 | 0.00 | 0.00 | 0.00 | 10 | 965.2 |
| 20260906042025 | 47 | 61 | 2.0 | 7.0 | 0.00 | 0.00 | 0.00 | 10 | 965.3 |
| 20260906041525 | 47 | 74 | 2.0 | 6.0 | 0.00 | 0.00 | 0.00 | 10 | 965.2 |
| 20260906041025 | 47 | 322 | 2.0 | 5.0 | 0.00 | 0.00 | 0.00 | 10 | 965.1 |
| 20260906040525 | 47 | 211 | 2.0 | 10.0 | 0.00 | 0.00 | 0.00 | 10 | 964.9 |
| 20260906040025 | 47 | 121 | 3.0 | 10.0 | 0.00 | 0.00 | 0.00 | 10 | 964.9 |
| 20260906035525 | 47 | 42 | 3.0 | 10.0 | 0.00 | 0.00 | 0.00 | 10 | 964.8 |
| 20260906034955 | 47 | 147 | 3.0 | 10.0 | 0.00 | 0.00 | 0.00 | 10 | 964.8 |
| 20260906034455 | 47 | 154 | 3.0 | 10.0 | 0.00 | 0.00 | 0.00 | 10 | 964.7 |
| 20260906033955 | 47 | 192 | 3.0 | 10.0 | 0.00 | 0.00 | 0.00 | 10 | 964.7 |
| 20260906033455 | 47 | 26 | 3.0 | 9.0 | 0.00 | 0.00 | 0.00 | 10 | 964.8 |
| 20260906032955 | 47 | 106 | 3.0 | 13.0 | 0.00 | 0.00 | 0.00 | 10 | 964.7 |
| 20260906032455 | 47 | 267 | 3.0 | 13.0 | 0.00 | 0.00 | 0.00 | 10 | 964.7 |
| 20260906031955 | 47 | 99 | 3.0 | 10.0 | 0.00 | 0.00 | 0.00 | 10 | 964.7 |
| 20260906031455 | 47 | 205 | 3.0 | 10.0 | 0.00 | 0.00 | 0.00 | 10 | 964.8 |
| 20260906030955 | 47 | 75 | 3.0 | 9.0 | 0.00 | 0.00 | 0.00 | 10 | 964.8 |
| 20260906030455 | 46 | 84 | 3.0 | 9.0 | 0.00 | 0.00 | 0.00 | 10 | 964.8 |
| 20260906025954 | 47 | 45 | 3.0 | 8.0 | 0.00 | 0.00 | 0.00 | 10 | 964.6 |
| 20260906025454 | 47 | 168 | 2.0 | 8.0 | 0.00 | 0.00 | 0.00 | 10 | 964.6 |
| 20260906024954 | 46 | 190 | 2.0 | 8.0 | 0.00 | 0.00 | 0.00 | 10 | 964.6 |
| 20260906024454 | 47 | 188 | 2.0 | 7.0 | 0.00 | 0.00 | 0.00 | 99 | 964.5 |
| 20260906023954 | 47 | 90 | 2.0 | 7.0 | 0.00 | 0.00 | 0.00 | 99 | 964.5 |
| 20260906023454 | 47 | 39 | 2.0 | 6.0 | 0.00 | 0.00 | 0.00 | 99 | 964.4 |
| 20260906022954 | 47 | 91 | 3.0 | 9.0 | 0.00 | 0.00 | 0.00 | 99 | 964.5 |
| 20260906022454 | 47 | 105 | 3.0 | 10.0 | 0.00 | 0.00 | 0.00 | 99 | 964.5 |
| 20260906021954 | 47 | 184 | 3.0 | 10.0 | 0.00 | 0.00 | 0.00 | 99 | 964.2 |
| 20260906021454 | 48 | 229 | 3.0 | 14.0 | 0.00 | 0.00 | 0.00 | 99 | 964.1 |
| 20260906020954 | 48 | 210 | 3.0 | 14.0 | 0.00 | 0.00 | 0.00 | 99 | 964.0 |
| 20260906020454 | 48 | 245 | 3.0 | 9.0 | 0.00 | 0.00 | 0.00 | 99 | 964.1 |
| 20260906015954 | 48 | 144 | 2.0 | 8.0 | 0.00 | 0.00 | 0.00 | 10 | 964.1 |
| 20260906015454 | 48 | 19 | 2.0 | 8.0 | 0.00 | 0.00 | 0.00 | 10 | 964.1 |
| 20260906014953 | 48 | 260 | 2.0 | 6.0 | 0.00 | 0.00 | 0.00 | 10 | 964.0 |
| 20260906014453 | 48 | 248 | 2.0 | 7.0 | 0.00 | 0.00 | 0.00 | 10 | 964.0 |
| 20260906013953 | 47 | 173 | 2.0 | 9.0 | 0.00 | 0.00 | 0.00 | 10 | 964.0 |
| 20260906013453 | 47 | 108 | 2.0 | 9.0 | 0.00 | 0.00 | 0.00 | 10 | 964.0 |
| 20260906012953 | 47 | 27 | 2.0 | 7.0 | 0.00 | 0.00 | 0.00 | 10 | 964.0 |
| 20260906012453 | 47 | 97 | 2.0 | 9.0 | 0.00 | 0.00 | 0.00 | 10 | 964.0 |
| 20260906011953 | 47 | 102 | 2.0 | 9.0 | 0.00 | 0.00 | 0.00 | 10 | 964.0 |
| 20260906011453 | 47 | 92 | 2.0 | 8.0 | 0.00 | 0.00 | 0.00 | 10 | 963.9 |
| 20260906010953 | 48 | 90 | 2.0 | 9.0 | 0.00 | 0.00 | 0.00 | 10 | 963.9 |
| 20260906010453 | 48 | 29 | 3.0 | 11.0 | 0.00 | 0.00 | 0.00 | 10 | 963.8 |
| 20260906005953 | 48 | 114 | 3.0 | 11.0 | 0.00 | 0.00 | 0.00 | 99 | 963.9 |
| 20260906005453 | 48 | 120 | 3.0 | 11.0 | 0.00 | 0.00 | 0.00 | 99 | 963.9 |
| 20260906004953 | 48 | 89 | 2.0 | 8.0 | 0.00 | 0.00 | 0.00 | 10 | 963.8 |
| 20260906004453 | 49 | 240 | 3.0 | 11.0 | 0.00 | 0.00 | 0.00 | 99 | 963.9 |
| 20260906003953 | 49 | 84 | 3.0 | 11.0 | 0.00 | 0.00 | 0.00 | 10 | 963.8 |
| 20260906003453 | 49 | 136 | 3.0 | 11.0 | 0.00 | 0.00 | 0.00 | 10 | 963.7 |
| 20260906002953 | 49 | 142 | 3.0 | 10.0 | 0.00 | 0.00 | 0.00 | 10 | 963.6 |
| 20260906002453 | 49 | 183 | 3.0 | 11.0 | 0.00 | 0.00 | 0.00 | 10 | 963.6 |
| 20260906001952 | 49 | 247 | 3.0 | 11.0 | 0.00 | 0.00 | 0.00 | 10 | 963.5 |
| 20260906001452 | 49 | 87 | 3.0 | 9.0 | 0.00 | 0.00 | 0.00 | 10 | 963.5 |
| 20260906000952 | 49 | 171 | 3.0 | 9.0 | 0.00 | 0.00 | 0.00 | 10 | 963.6 |
| 20260906000452 | 49 | 159 | 3.0 | 11.0 | 0.00 | 0.00 | 0.00 | 10 | 963.5 |
| 20260905235952 | 49 | 133 | 4.0 | 13.0 | 0.00 | 0.00 | 0.00 | 99 | 963.4 |
| 20260905235452 | 49 | 160 | 4.0 | 13.0 | 0.00 | 0.00 | 0.00 | 99 | 963.3 |
| 20260905234952 | 49 | 237 | 3.0 | 12.0 | 0.00 | 0.00 | 0.00 | 10 | 963.2 |
| 20260905234452 | 49 | 212 | 3.0 | 12.0 | 0.00 | 0.00 | 0.00 | 10 | 963.1 |
| 20260905233952 | 49 | 87 | 3.0 | 10.0 | 0.00 | 0.00 | 0.00 | 10 | 963.1 |
| 20260905233422 | 49 | 81 | 3.0 | 11.0 | 0.00 | 0.00 | 0.00 | 10 | 963.0 |
| 20260905232922 | 49 | 79 | 3.0 | 12.0 | 0.00 | 0.00 | 0.00 | 10 | 963.1 |
| 20260905232422 | 49 | 63 | 3.0 | 12.0 | 0.00 | 0.00 | 0.00 | 10 | 963.0 |
| 20260905231922 | 49 | 156 | 3.0 | 12.0 | 0.00 | 0.00 | 0.00 | 10 | 963.0 |
| 20260905231421 | 49 | 105 | 3.0 | 9.0 | 0.00 | 0.00 | 0.00 | 10 | 962.8 |
| 20260905230921 | 49 | 66 | 3.0 | 10.0 | 0.00 | 0.00 | 0.00 | 99 | 962.8 |
| 20260905230421 | 50 | 275 | 3.0 | 10.0 | 0.00 | 0.00 | 0.00 | 99 | 962.8 |
| 20260905225921 | 50 | 103 | 3.0 | 9.0 | 0.00 | 0.00 | 0.00 | 99 | 962.7 |
| 20260905225421 | 50 | 165 | 3.0 | 9.0 | 0.00 | 0.00 | 0.00 | 99 | 962.6 |
| 20260905224921 | 50 | 128 | 3.0 | 9.0 | 0.00 | 0.00 | 0.00 | 99 | 962.6 |
| 20260905224421 | 50 | 144 | 3.0 | 11.0 | 0.00 | 0.00 | 0.00 | 99 | 962.5 |
| 20260905223921 | 50 | 4 | 4.0 | 12.0 | 0.00 | 0.00 | 0.00 | 98 | 962.5 |
| 20260905223421 | 51 | 227 | 4.0 | 12.0 | 0.00 | 0.00 | 0.00 | 98 | 962.4 |
| 20260905222921 | 51 | 159 | 5.0 | 12.0 | 0.00 | 0.00 | 0.00 | 98 | 962.4 |
| 20260905222421 | 51 | 221 | 5.0 | 12.0 | 0.00 | 0.00 | 0.00 | 98 | 962.2 |
| 20260905221921 | 51 | 99 | 4.0 | 11.0 | 0.00 | 0.00 | 0.00 | 98 | 962.2 |
| 20260905221421 | 51 | 189 | 4.0 | 12.0 | 0.00 | 0.00 | 0.00 | 98 | 962.2 |
| 20260905220921 | 51 | 233 | 5.0 | 12.0 | 0.00 | 0.00 | 0.00 | 98 | 962.0 |
| 20260905220420 | 51 | 237 | 5.0 | 12.0 | 0.00 | 0.00 | 0.00 | 98 | 962.0 |
| 20260905215920 | 51 | 223 | 4.0 | 14.0 | 0.00 | 0.00 | 0.00 | 99 | 961.8 |
| 20260905215420 | 51 | 202 | 4.0 | 14.0 | 0.00 | 0.00 | 0.00 | 99 | 961.8 |
| 20260905214920 | 51 | 258 | 4.0 | 10.0 | 0.00 | 0.00 | 0.00 | 10 | 961.8 |
| 20260905214420 | 52 | 222 | 4.0 | 10.0 | 0.00 | 0.00 | 0.00 | 99 | 961.8 |
| 20260905213920 | 52 | 201 | 3.0 | 10.0 | 0.00 | 0.00 | 0.00 | 99 | 961.7 |
| 20260905213420 | 52 | 326 | 2.0 | 10.0 | 0.00 | 0.00 | 0.00 | 99 | 961.6 |
| 20260905212850 | 51 | 74 | 2.0 | 6.0 | 0.00 | 0.00 | 0.00 | 99 | 961.5 |
| 20260905212350 | 51 | 78 | 2.0 | 6.0 | 0.00 | 0.00 | 0.00 | 99 | 961.4 |
| 20260905211850 | 51 | 228 | 2.0 | 8.0 | 0.00 | 0.00 | 0.00 | 98 | 961.4 |
| 20260905211350 | 51 | 90 | 2.0 | 8.0 | 0.00 | 0.00 | 0.00 | 99 | 961.4 |
| 20260905210850 | 51 | 127 | 2.0 | 7.0 | 0.00 | 0.00 | 0.00 | 99 | 961.3 |
| 20260905210350 | 51 | 70 | 2.0 | 7.0 | 0.00 | 0.00 | 0.00 | 98 | 961.2 |
| 20260905205850 | 51 | 107 | 2.0 | 5.0 | 0.00 | 0.00 | 0.00 | 98 | 961.0 |
| 20260905205350 | 51 | 90 | 2.0 | 9.0 | 0.00 | 0.00 | 0.00 | 98 | 960.9 |
| 20260905204849 | 51 | 32 | 3.0 | 9.0 | 0.00 | 0.00 | 0.00 | 98 | 960.9 |
| 20260905204349 | 51 | 94 | 3.0 | 8.0 | 0.00 | 0.00 | 0.00 | 98 | 961.0 |
| 20260905203849 | 51 | 112 | 3.0 | 7.0 | 0.00 | 0.00 | 0.00 | 98 | 961.0 |
| 20260905203349 | 52 | 233 | 2.0 | 7.0 | 0.00 | 0.00 | 0.00 | 98 | 960.9 |
| 20260905202849 | 52 | 123 | 2.0 | 7.0 | 0.00 | 0.00 | 0.00 | 98 | 960.9 |
| 20260905202349 | 52 | 83 | 2.0 | 9.0 | 0.00 | 0.00 | 0.00 | 98 | 960.9 |
| 20260905201849 | 52 | 311 | 2.0 | 9.0 | 0.00 | 0.00 | 0.00 | 98 | 960.7 |
| 20260905201349 | 52 | 251 | 2.0 | 9.0 | 0.00 | 0.00 | 0.00 | 98 | 960.7 |
| 20260905200849 | 52 | 273 | 2.0 | 6.0 | 0.00 | 0.00 | 0.00 | 98 | 960.7 |
| 20260905200349 | 52 | 182 | 3.0 | 7.0 | 0.00 | 0.00 | 0.00 | 98 | 960.7 |
| 20260905195849 | 52 | 236 | 4.0 | 7.0 | 0.00 | 0.00 | 0.00 | 98 | 960.6 |
| 20260905195349 | 52 | 237 | 4.0 | 8.0 | 0.00 | 0.00 | 0.00 | 97 | 960.5 |
| 20260905194849 | 52 | 236 | 5.0 | 8.0 | 0.00 | 0.00 | 0.00 | 96 | 960.5 |
| 20260905194349 | 52 | 229 | 5.0 | 8.0 | 0.00 | 0.00 | 0.00 | 94 | 960.4 |
| 20260905193849 | 52 | 233 | 5.0 | 8.0 | 0.00 | 0.00 | 0.00 | 91 | 960.4 |